createdAt,value
2019-01-28T00:00:45.518Z,98.30
2019-01-28T00:03:13.787Z,98.30
2019-01-28T00:05:42.389Z,98.30
2019-01-28T00:08:10.728Z,98.30
2019-01-28T00:10:39.018Z,98.30
2019-01-28T00:13:07.338Z,98.30
2019-01-28T00:15:35.622Z,98.30
2019-01-28T00:18:03.980Z,98.40
2019-01-28T00:20:32.325Z,98.40
2019-01-28T00:23:00.626Z,98.50
2019-01-28T00:25:28.935Z,98.50
2019-01-28T00:27:57.200Z,98.60
2019-01-28T00:30:25.485Z,98.60
2019-01-28T00:32:53.827Z,98.60
2019-01-28T00:35:22.242Z,98.60
2019-01-28T00:37:50.513Z,98.70
2019-01-28T00:40:18.860Z,98.80
2019-01-28T00:42:47.183Z,98.80
2019-01-28T00:45:15.534Z,98.90
2019-01-28T00:47:43.824Z,98.90
2019-01-28T00:50:12.798Z,99.40
2019-01-28T00:52:41.084Z,99.10
2019-01-28T00:55:11.676Z,99.10
2019-01-28T00:57:39.961Z,99.20
2019-01-28T01:00:14.651Z,99.20
2019-01-28T01:02:42.949Z,99.30
2019-01-28T01:05:11.234Z,99.30
2019-01-28T01:07:39.514Z,99.50
2019-01-28T01:10:10.653Z,99.50
2019-01-28T01:12:38.935Z,99.50
2019-01-28T01:15:10.133Z,99.50
2019-01-28T01:17:38.480Z,99.50
2019-01-28T01:20:12.471Z,99.50
2019-01-28T01:22:40.810Z,99.70
2019-01-28T01:25:09.742Z,99.70
2019-01-28T01:27:38.018Z,99.70
2019-01-28T01:30:10.211Z,99.80
2019-01-28T01:32:38.487Z,99.80
2019-01-28T01:35:07.231Z,99.90
2019-01-28T01:37:35.517Z,99.90
2019-01-28T01:40:05.635Z,99.90
2019-01-28T01:42:33.987Z,99.90
2019-01-28T01:45:02.301Z,99.90
2019-01-28T01:47:30.577Z,99.90
2019-01-28T01:49:58.865Z,99.90
2019-01-28T01:52:27.217Z,99.90
2019-01-28T01:54:55.514Z,99.90
2019-01-28T01:57:23.789Z,99.90
2019-01-28T01:59:52.115Z,99.90
2019-01-28T02:02:20.518Z,99.90
2019-01-28T02:04:48.838Z,99.90
2019-01-28T02:07:17.122Z,99.90
2019-01-28T02:09:45.403Z,99.90
2019-01-28T02:12:13.700Z,99.90
2019-01-28T02:14:41.969Z,99.90
2019-01-28T02:17:10.238Z,99.90
2019-01-28T02:19:38.532Z,99.90
2019-01-28T02:22:06.806Z,99.90
2019-01-28T02:24:35.092Z,99.90
2019-01-28T02:27:03.370Z,99.90
2019-01-28T02:29:31.822Z,99.80
2019-01-28T02:32:00.108Z,99.70
2019-01-28T02:34:28.578Z,99.70
2019-01-28T02:36:56.856Z,99.60
2019-01-28T02:39:25.313Z,99.50
2019-01-28T02:41:53.603Z,99.60
2019-01-28T02:44:41.313Z,99.50
2019-01-28T02:47:09.652Z,99.60
2019-01-28T02:49:37.963Z,99.50
2019-01-28T02:52:06.306Z,99.50
2019-01-28T02:54:34.594Z,99.50
2019-01-28T02:57:02.942Z,99.50
2019-01-28T02:59:32.120Z,99.50
2019-01-28T03:02:00.418Z,99.60
2019-01-28T03:04:28.761Z,99.60
2019-01-28T03:06:57.050Z,99.60
2019-01-28T03:09:25.328Z,99.60
2019-01-28T03:11:53.651Z,99.60
2019-01-28T03:14:21.931Z,99.60
2019-01-28T03:16:50.266Z,99.60
2019-01-28T03:19:18.572Z,99.60
2019-01-28T03:21:46.837Z,99.60
2019-01-28T03:24:15.123Z,99.60
2019-01-28T03:26:43.418Z,99.60
2019-01-28T03:29:11.698Z,99.60
2019-01-28T03:31:40.062Z,99.50
2019-01-28T03:34:08.434Z,99.50
2019-01-28T03:36:36.714Z,99.50
2019-01-28T03:39:07.823Z,99.40
2019-01-28T03:41:36.199Z,99.50
2019-01-28T03:44:04.560Z,99.40
2019-01-28T03:46:32.930Z,99.40
2019-01-28T03:49:01.256Z,99.40
2019-01-28T03:51:29.702Z,99.40
2019-01-28T03:53:57.973Z,99.30
2019-01-28T03:56:26.249Z,99.20
2019-01-28T03:58:54.726Z,99.30
2019-01-28T04:01:23.011Z,99.30
2019-01-28T04:03:51.307Z,99.30
2019-01-28T04:06:19.647Z,99.30
2019-01-28T04:08:48.048Z,99.30
2019-01-28T04:11:16.361Z,99.30
2019-01-28T04:13:44.642Z,99.30
2019-01-28T04:16:12.918Z,99.40
2019-01-28T04:18:41.229Z,99.30
2019-01-28T04:21:09.516Z,99.30
2019-01-28T04:23:37.899Z,99.30
2019-01-28T04:26:06.179Z,99.30
2019-01-28T04:28:34.494Z,99.30
2019-01-28T04:31:02.848Z,99.40
2019-01-28T04:33:31.122Z,99.40
2019-01-28T04:35:59.408Z,99.40
2019-01-28T04:38:27.742Z,99.40
2019-01-28T04:40:56.038Z,99.40
2019-01-28T04:43:24.375Z,99.30
2019-01-28T04:45:52.644Z,99.30
2019-01-28T04:48:20.922Z,99.30
2019-01-28T04:50:49.247Z,99.30
2019-01-28T04:53:17.517Z,99.20
2019-01-28T04:55:45.852Z,99.20
2019-01-28T04:58:14.174Z,99.30
2019-01-28T05:00:42.441Z,99.70
2019-01-28T05:03:10.713Z,99.30
2019-01-28T05:05:38.998Z,99.20
2019-01-28T05:08:07.307Z,99.30
2019-01-28T05:10:35.577Z,99.30
2019-01-28T05:13:04.985Z,99.60
2019-01-28T05:15:33.323Z,99.30
2019-01-28T05:18:01.586Z,99.20
2019-01-28T05:20:29.902Z,99.20
2019-01-28T05:22:58.252Z,99.20
2019-01-28T05:25:26.528Z,99.10
2019-01-28T05:27:54.805Z,99.10
2019-01-28T05:30:24.415Z,99.10
2019-01-28T05:32:52.777Z,99.10
2019-01-28T05:35:22.594Z,99.10
2019-01-28T05:37:50.870Z,99.20
2019-01-28T05:40:21.214Z,99.20
2019-01-28T05:42:49.509Z,99.10
2019-01-28T05:45:22.863Z,99.10
2019-01-28T05:47:51.140Z,99.10
2019-01-28T05:50:19.420Z,99.20
2019-01-28T05:52:47.690Z,99.20
2019-01-28T05:55:17.902Z,99.40
2019-01-28T05:57:46.246Z,99.50
2019-01-28T06:00:33.217Z,99.60
2019-01-28T06:03:01.486Z,99.70
2019-01-28T06:05:29.767Z,99.70
2019-01-28T06:07:58.114Z,99.70
2019-01-28T06:10:26.442Z,99.70
2019-01-28T06:12:54.786Z,99.70
2019-01-28T06:15:23.058Z,99.90
2019-01-28T06:17:51.374Z,99.90
2019-01-28T06:20:24.521Z,99.90
2019-01-28T06:22:52.803Z,99.90
2019-01-28T06:25:21.431Z,99.90
2019-01-28T06:27:49.710Z,99.90
2019-01-28T06:30:21.251Z,99.90
2019-01-28T06:32:49.539Z,99.90
2019-01-28T06:35:17.856Z,99.90
2019-01-28T06:37:46.197Z,99.90
2019-01-28T06:40:17.965Z,99.90
2019-01-28T06:42:46.246Z,99.90
2019-01-28T06:45:15.694Z,99.90
2019-01-28T06:47:46.999Z,99.90
2019-01-28T06:50:16.970Z,99.90
2019-01-28T06:52:45.265Z,99.90
2019-01-28T06:55:13.553Z,99.90
2019-01-28T06:57:41.894Z,99.90
2019-01-28T07:00:16.379Z,99.90
2019-01-28T07:02:44.764Z,99.90
2019-01-28T07:05:13.043Z,99.90
2019-01-28T07:07:41.327Z,99.90
2019-01-28T07:10:10.432Z,99.90
2019-01-28T07:12:38.710Z,99.90
2019-01-28T07:15:13.105Z,99.90
2019-01-28T07:17:41.421Z,99.90
2019-01-28T07:20:13.335Z,99.90
2019-01-28T07:22:41.607Z,99.90
2019-01-28T07:25:09.928Z,99.90
2019-01-28T07:27:38.197Z,99.90
2019-01-28T07:30:09.738Z,99.90
2019-01-28T07:32:38.054Z,99.90
2019-01-28T07:35:09.582Z,99.90
2019-01-28T07:37:37.862Z,99.90
2019-01-28T07:40:09.789Z,99.90
2019-01-28T07:42:38.146Z,99.90
2019-01-28T07:45:09.771Z,99.90
2019-01-28T07:47:38.289Z,99.90
2019-01-28T07:50:07.498Z,99.80
2019-01-28T07:52:35.838Z,99.80
2019-01-28T07:55:05.823Z,99.60
2019-01-28T07:57:34.099Z,99.40
2019-01-28T08:00:02.394Z,99.20
2019-01-28T08:02:30.667Z,99.00
2019-01-28T08:05:00.255Z,98.90
2019-01-28T08:07:28.566Z,98.60
2019-01-28T08:09:56.842Z,98.40
2019-01-28T08:12:25.121Z,98.40
2019-01-28T08:14:53.421Z,98.20
2019-01-28T08:17:21.953Z,98.10
2019-01-28T08:19:50.435Z,98.00
2019-01-28T08:22:18.777Z,98.00
2019-01-28T08:24:47.045Z,97.90
2019-01-28T08:27:15.321Z,97.70
2019-01-28T08:29:43.597Z,97.70
2019-01-28T08:32:11.963Z,97.60
2019-01-28T08:34:40.306Z,97.60
2019-01-28T08:37:08.646Z,97.50
2019-01-28T08:39:36.976Z,97.50
2019-01-28T08:42:05.347Z,97.50
2019-01-28T08:44:33.621Z,97.50
2019-01-28T08:47:01.893Z,97.30
2019-01-28T08:49:30.185Z,97.20
2019-01-28T08:51:58.490Z,97.10
2019-01-28T08:54:26.769Z,97.00
2019-01-28T08:56:55.042Z,96.80
2019-01-28T08:59:23.331Z,96.70
2019-01-28T09:01:51.608Z,96.70
2019-01-28T09:04:20.136Z,96.40
2019-01-28T09:06:48.433Z,96.40
2019-01-28T09:09:16.792Z,96.10
2019-01-28T09:11:45.076Z,96.10
2019-01-28T09:14:13.356Z,96.10
2019-01-28T09:16:41.644Z,95.90
2019-01-28T09:19:09.943Z,95.80
2019-01-28T09:21:38.222Z,95.60
2019-01-28T09:24:06.640Z,95.50
2019-01-28T09:26:34.924Z,95.40
2019-01-28T09:29:03.180Z,95.30
2019-01-28T09:31:31.470Z,95.70
2019-01-28T09:33:59.782Z,95.30
2019-01-28T09:36:28.049Z,95.10
2019-01-28T09:38:57.942Z,95.10
2019-01-28T09:41:26.241Z,95.10
2019-01-28T09:43:56.209Z,94.90
2019-01-28T09:46:24.482Z,94.90
2019-01-28T09:48:52.753Z,94.60
2019-01-28T09:51:21.038Z,94.70
2019-01-28T09:53:49.311Z,94.50
2019-01-28T09:56:17.589Z,94.30
2019-01-28T09:58:45.903Z,94.00
2019-01-28T10:01:14.260Z,93.80
2019-01-28T10:03:42.610Z,93.50
2019-01-28T10:06:10.931Z,93.20
2019-01-28T10:08:39.260Z,92.90
2019-01-28T10:11:07.538Z,92.40
2019-01-28T10:13:35.836Z,92.40
2019-01-28T10:16:04.123Z,92.10
2019-01-28T10:18:32.390Z,91.80
2019-01-28T10:21:00.678Z,91.60
2019-01-28T10:23:28.949Z,91.60
2019-01-28T10:25:57.872Z,91.40
2019-01-28T10:28:26.319Z,91.40
2019-01-28T10:30:54.621Z,91.40
2019-01-28T10:33:22.902Z,91.40
2019-01-28T10:35:51.366Z,91.40
2019-01-28T10:38:19.654Z,91.40
2019-01-28T10:40:47.925Z,91.40
2019-01-28T10:43:16.239Z,91.40
2019-01-28T10:45:44.514Z,91.40
2019-01-28T10:48:14.054Z,91.20
2019-01-28T10:50:43.597Z,91.10
2019-01-28T10:53:11.904Z,90.90
2019-01-28T10:55:40.182Z,90.80
2019-01-28T10:58:08.449Z,90.20
2019-01-28T11:00:39.976Z,90.10
2019-01-28T11:03:09.685Z,89.70
2019-01-28T11:05:37.962Z,89.50
2019-01-28T11:08:06.834Z,89.50
2019-01-28T11:10:35.204Z,89.70
2019-01-28T11:13:05.152Z,89.70
2019-01-28T11:15:33.715Z,90.10
2019-01-28T11:18:11.363Z,90.10
2019-01-28T11:20:39.733Z,90.10
2019-01-28T11:23:08.222Z,90.10
2019-01-28T11:25:36.983Z,90.10
2019-01-28T11:28:05.244Z,89.70
2019-01-28T11:30:46.824Z,89.20
2019-01-28T11:33:15.244Z,88.80
2019-01-28T11:35:43.795Z,88.40
2019-01-28T11:38:12.875Z,88.20
2019-01-28T11:40:41.220Z,87.90
2019-01-28T11:43:09.577Z,87.70
2019-01-28T11:45:50.256Z,87.60
2019-01-28T11:48:18.629Z,86.80
2019-01-28T11:50:47.074Z,87.20
2019-01-28T11:53:15.443Z,87.20
2019-01-28T11:55:43.715Z,88.30
2019-01-28T11:58:11.977Z,87.30
2019-01-28T12:00:44.984Z,87.50
2019-01-28T12:03:13.251Z,87.40
2019-01-28T12:05:41.526Z,87.50
2019-01-28T12:08:09.808Z,87.80
2019-01-28T12:10:38.082Z,87.80
2019-01-28T12:13:06.388Z,88.10
2019-01-28T12:15:34.763Z,88.20
2019-01-28T12:18:03.084Z,88.20
2019-01-28T12:20:31.377Z,88.30
2019-01-28T12:22:59.726Z,88.30
2019-01-28T12:25:28.002Z,88.30
2019-01-28T12:27:56.278Z,88.40
2019-01-28T12:30:31.912Z,88.50
2019-01-28T12:33:00.875Z,88.80
2019-01-28T12:35:48.620Z,88.90
2019-01-28T12:38:16.926Z,88.80
2019-01-28T12:40:45.204Z,89.20
2019-01-28T12:43:13.554Z,90.00
2019-01-28T12:45:41.912Z,90.40
2019-01-28T12:48:10.201Z,91.00
2019-01-28T12:50:38.548Z,91.00
2019-01-28T12:53:06.884Z,91.10
2019-01-28T12:55:35.212Z,91.20
2019-01-28T12:58:03.699Z,91.30
2019-01-28T13:00:38.240Z,91.30
2019-01-28T13:03:06.686Z,91.40
2019-01-28T13:05:35.031Z,91.50
2019-01-28T13:08:03.317Z,91.50
2019-01-28T13:10:31.592Z,91.60
2019-01-28T13:12:59.884Z,91.60
2019-01-28T13:15:32.845Z,91.60
2019-01-28T13:18:01.186Z,91.60
2019-01-28T13:20:29.514Z,91.70
2019-01-28T13:22:57.846Z,91.70
2019-01-28T13:25:35.010Z,91.80
2019-01-28T13:28:04.237Z,91.90
2019-01-28T13:30:35.505Z,91.80
2019-01-28T13:33:20.077Z,91.80
2019-01-28T13:35:49.058Z,91.80
2019-01-28T13:38:17.386Z,91.90
2019-01-28T13:40:45.658Z,92.00
2019-01-28T13:43:13.953Z,92.10
2019-01-28T13:45:42.234Z,92.20
2019-01-28T13:48:10.794Z,92.20
2019-01-28T13:50:39.110Z,92.20
2019-01-28T13:53:07.375Z,92.40
2019-01-28T13:55:35.643Z,92.40
2019-01-28T13:58:04.533Z,92.40
2019-01-28T14:00:32.942Z,92.40
2019-01-28T14:03:01.239Z,92.40
2019-01-28T14:05:29.519Z,92.40
2019-01-28T14:07:57.821Z,92.40
2019-01-28T14:10:26.424Z,92.40
2019-01-28T14:12:54.692Z,92.70
2019-01-28T14:15:26.285Z,92.70
2019-01-28T14:17:54.621Z,92.80
2019-01-28T14:20:32.442Z,93.00
2019-01-28T14:23:00.730Z,93.10
2019-01-28T14:25:29.070Z,93.20
2019-01-28T14:27:57.367Z,93.10
2019-01-28T14:30:37.043Z,93.10
2019-01-28T14:33:06.376Z,93.30
2019-01-28T14:35:34.706Z,93.30
2019-01-28T14:38:03.851Z,93.30
2019-01-28T14:40:32.745Z,93.40
2019-01-28T14:43:01.029Z,93.50
2019-01-28T14:45:29.377Z,93.50
2019-01-28T14:47:57.660Z,93.70
2019-01-28T14:50:28.666Z,93.70
2019-01-28T14:52:56.989Z,93.80
2019-01-28T14:55:25.267Z,93.90
2019-01-28T14:58:16.474Z,93.90
2019-01-28T15:00:44.094Z,94.00
2019-01-28T15:03:12.455Z,94.10
2019-01-28T15:05:40.727Z,94.20
2019-01-28T15:08:09.001Z,94.20
2019-01-28T15:10:37.305Z,94.30
2019-01-28T15:13:05.573Z,94.30
2019-01-28T15:15:36.198Z,94.40
2019-01-28T15:18:05.809Z,94.50
2019-01-28T15:20:34.170Z,94.60
2019-01-28T15:23:02.555Z,94.70
2019-01-28T15:25:30.838Z,94.70
2019-01-28T15:27:59.106Z,94.80
2019-01-28T15:30:29.571Z,94.90
2019-01-28T15:32:57.914Z,95.00
2019-01-28T15:35:26.201Z,95.00
2019-01-28T15:37:54.582Z,95.10
2019-01-28T15:40:25.794Z,95.30
2019-01-28T15:42:54.062Z,95.30
2019-01-28T15:45:25.017Z,95.30
2019-01-28T15:47:53.286Z,95.30
2019-01-28T15:50:21.562Z,95.40
2019-01-28T15:52:51.162Z,95.50
2019-01-28T15:55:22.915Z,95.50
2019-01-28T15:57:51.299Z,95.60
2019-01-28T16:00:25.503Z,95.60
2019-01-28T16:02:54.217Z,95.70
2019-01-28T16:05:22.531Z,95.70
2019-01-28T16:07:50.812Z,95.80
2019-01-28T16:10:19.249Z,95.80
2019-01-28T16:12:47.571Z,95.80
2019-01-28T16:15:24.986Z,95.90
2019-01-28T16:17:53.266Z,96.10
2019-01-28T16:20:21.580Z,96.10
2019-01-28T16:22:49.854Z,96.30
2019-01-28T16:25:18.125Z,96.40
2019-01-28T16:27:46.490Z,96.40
2019-01-28T16:30:26.486Z,96.60
2019-01-28T16:32:53.796Z,96.90
2019-01-28T16:35:22.087Z,97.00
2019-01-28T16:37:52.103Z,97.20
2019-01-28T16:40:25.518Z,97.50
2019-01-28T16:42:53.957Z,98.00
2019-01-28T16:45:22.269Z,98.30
2019-01-28T16:47:50.559Z,98.40
2019-01-28T16:50:35.516Z,98.70
2019-01-28T16:53:03.821Z,98.80
2019-01-28T16:55:32.085Z,99.10
2019-01-28T16:58:01.079Z,99.10
2019-01-28T17:00:40.114Z,99.30
2019-01-28T17:03:09.969Z,99.40
2019-01-28T17:05:38.610Z,99.50
2019-01-28T17:08:07.071Z,99.60
2019-01-28T17:10:35.389Z,99.60
2019-01-28T17:13:04.029Z,99.80
2019-01-28T17:15:32.303Z,99.90
2019-01-28T17:18:00.568Z,99.90
2019-01-28T17:20:35.555Z,99.90
2019-01-28T17:23:03.735Z,99.90
2019-01-28T17:25:34.946Z,99.90
2019-01-28T17:28:03.256Z,99.90
2019-01-28T17:30:40.618Z,99.90
2019-01-28T17:33:08.968Z,99.90
2019-01-28T17:35:37.310Z,99.90
2019-01-28T17:38:06.960Z,99.90
2019-01-28T17:40:37.429Z,99.90
2019-01-28T17:43:07.033Z,99.90
2019-01-28T17:45:35.378Z,99.90
2019-01-28T17:48:03.828Z,99.90
2019-01-28T17:50:32.107Z,99.90
2019-01-28T17:53:00.395Z,99.90
2019-01-28T17:55:28.685Z,99.90
2019-01-28T17:57:56.971Z,99.90
2019-01-28T18:00:30.718Z,99.90
2019-01-28T18:02:59.198Z,99.90
2019-01-28T18:05:27.537Z,99.90
2019-01-28T18:07:55.813Z,99.90
2019-01-28T18:10:24.086Z,99.90
2019-01-28T18:12:52.360Z,99.90
2019-01-28T18:15:25.599Z,99.90
2019-01-28T18:17:53.942Z,99.90
2019-01-28T18:20:22.226Z,99.90
2019-01-28T18:22:50.529Z,99.90
2019-01-28T18:25:25.028Z,99.90
2019-01-28T18:27:53.315Z,99.90
2019-01-28T18:30:34.861Z,99.90
2019-01-28T18:33:03.361Z,99.90
2019-01-28T18:35:31.705Z,99.90
2019-01-28T18:38:00.149Z,99.90
2019-01-28T18:40:28.938Z,99.90
2019-01-28T18:42:57.543Z,99.90
2019-01-28T18:45:26.053Z,99.90
2019-01-28T18:47:54.395Z,99.90
2019-01-28T18:50:23.766Z,99.90
2019-01-28T18:52:52.567Z,99.90
2019-01-28T18:55:22.161Z,99.90
2019-01-28T18:57:50.523Z,99.90
2019-01-28T19:00:21.498Z,99.90
2019-01-28T19:02:49.776Z,99.90
2019-01-28T19:05:37.100Z,99.90
2019-01-28T19:08:15.838Z,99.90
2019-01-28T19:10:51.847Z,99.90
2019-01-28T19:13:30.538Z,99.90
2019-01-28T19:16:03.274Z,99.90
2019-01-28T19:18:33.199Z,99.90
2019-01-28T19:21:07.768Z,99.90
2019-01-28T19:23:33.125Z,99.90
2019-01-28T19:26:01.410Z,99.90
2019-01-28T19:28:29.953Z,99.90
2019-01-28T19:30:58.240Z,99.90
2019-01-28T19:33:26.576Z,99.90
2019-01-28T19:35:54.862Z,99.90
2019-01-28T19:38:23.139Z,99.90
2019-01-28T19:40:51.501Z,99.90
2019-01-28T19:43:25.774Z,99.90
2019-01-28T19:45:54.052Z,99.90
2019-01-28T19:48:22.349Z,99.90
2019-01-28T19:50:50.633Z,99.90
2019-01-28T19:53:18.909Z,99.90
2019-01-28T19:55:47.218Z,99.90
2019-01-28T19:58:15.496Z,99.90
2019-01-28T20:00:43.761Z,99.90
2019-01-28T20:03:12.538Z,99.90
2019-01-28T20:05:40.819Z,99.90
2019-01-28T20:08:09.112Z,99.90
2019-01-28T20:10:37.386Z,99.90
2019-01-28T20:13:05.670Z,99.90
2019-01-28T20:15:33.951Z,99.90
2019-01-28T20:18:02.225Z,99.90
2019-01-28T20:20:30.609Z,99.90
2019-01-28T20:22:58.941Z,99.90
2019-01-28T20:25:27.701Z,99.90
2019-01-28T20:27:56.123Z,99.90
2019-01-28T20:30:26.482Z,99.90
2019-01-28T20:32:54.765Z,99.90
2019-01-28T20:35:23.110Z,99.90
2019-01-28T20:37:51.384Z,99.90
2019-01-28T20:40:19.672Z,99.90
2019-01-28T20:42:47.950Z,99.90
2019-01-28T20:45:45.027Z,99.90
2019-01-28T20:48:10.057Z,99.90
2019-01-28T20:50:38.350Z,99.90
2019-01-28T20:53:06.730Z,99.90
2019-01-28T20:55:35.009Z,99.90
2019-01-28T20:58:03.303Z,99.90
2019-01-28T21:00:31.711Z,99.90
2019-01-28T21:03:00.075Z,99.90
2019-01-28T21:05:28.426Z,99.90
2019-01-28T21:07:57.007Z,99.90
2019-01-28T21:10:25.560Z,99.90
2019-01-28T21:12:54.107Z,99.90
2019-01-28T21:15:23.456Z,99.90
2019-01-28T21:17:51.806Z,99.90
2019-01-28T21:20:21.489Z,99.90
2019-01-28T21:22:50.464Z,99.90
2019-01-28T21:25:26.813Z,99.90
2019-01-28T21:27:55.146Z,99.90
2019-01-28T21:30:29.484Z,99.90
2019-01-28T21:32:57.758Z,99.90
2019-01-28T21:35:33.259Z,99.90
2019-01-28T21:38:03.241Z,99.90
2019-01-28T21:40:31.603Z,99.90
2019-01-28T21:42:59.896Z,99.90
2019-01-28T21:45:28.183Z,99.90
2019-01-28T21:47:56.470Z,99.90
2019-01-28T21:50:26.689Z,99.90
2019-01-28T21:52:54.968Z,99.90
2019-01-28T21:55:23.266Z,99.90
2019-01-28T21:57:51.532Z,99.90
2019-01-28T22:00:19.817Z,99.90
2019-01-28T22:02:48.391Z,99.90
2019-01-28T22:05:16.700Z,99.90
2019-01-28T22:07:44.972Z,99.90
2019-01-28T22:10:14.889Z,99.90
2019-01-28T22:12:43.173Z,99.90
2019-01-28T22:15:17.706Z,99.90
2019-01-28T22:17:45.997Z,99.90
2019-01-28T22:20:15.403Z,99.90
2019-01-28T22:22:43.793Z,99.90
2019-01-28T22:25:16.854Z,99.90
2019-01-28T22:27:45.142Z,99.90
2019-01-28T22:30:24.349Z,99.90
2019-01-28T22:32:52.642Z,99.90
2019-01-28T22:35:21.071Z,99.90
2019-01-28T22:37:49.360Z,99.90
2019-01-28T22:40:18.786Z,99.90
2019-01-28T22:42:47.117Z,99.90
2019-01-28T22:45:19.557Z,99.90
2019-01-28T22:47:47.914Z,99.90
2019-01-28T22:50:17.866Z,99.90
2019-01-28T22:52:46.146Z,99.90
2019-01-28T22:55:19.513Z,99.90
2019-01-28T22:57:47.807Z,99.90
2019-01-28T23:00:47.817Z,99.90
2019-01-28T23:03:18.026Z,99.90
2019-01-28T23:05:46.319Z,99.90
2019-01-28T23:08:15.810Z,99.90
2019-01-28T23:10:44.340Z,99.90
2019-01-28T23:13:12.662Z,99.90
2019-01-28T23:15:40.955Z,99.90
2019-01-28T23:18:09.221Z,99.90
2019-01-28T23:20:37.538Z,99.90
2019-01-28T23:23:05.813Z,99.90
2019-01-28T23:25:34.135Z,99.90
2019-01-28T23:28:02.477Z,99.90
2019-01-28T23:30:30.781Z,99.90
2019-01-28T23:32:59.206Z,99.90
2019-01-28T23:35:27.611Z,99.90
2019-01-28T23:37:55.886Z,99.90
2019-01-28T23:40:24.166Z,99.90
2019-01-28T23:42:53.117Z,99.90
2019-01-28T23:45:21.398Z,99.90
2019-01-28T23:47:49.687Z,99.90
2019-01-28T23:50:18.049Z,99.90
2019-01-28T23:52:46.430Z,99.90
2019-01-28T23:55:14.779Z,99.90
2019-01-28T23:57:43.150Z,99.90
